METAR Data
IDs: Format: Raw Decoded Include TAF

Data at: 0201 UTC 24 Jun 2021

METAR for:KSDF (Louisville Intl, KY, US)
Text:KSDF 240156Z 12006KT 10SM FEW300 23/10 A3011 RMK AO2 SLP192 T02330100
Temperature: 23.3°C ( 74°F)
Dewpoint: 10.0°C ( 50°F) [RH = 43%]
Pressure (altimeter):30.11 inches Hg (1019.7 mb) [Sea level pressure: 1019.2 mb]
Winds:from the ESE (120 degrees) at 7 MPH (6 knots; 3.1 m/s)
Visibility:10 or more sm (16+ km)
Ceiling:at least 12,000 feet AGL
Clouds: few clouds at 30000 feet AGL